sensor_id;sensor_type;location;lat;lon;timestamp;pressure;altitude;pressure_sealevel;temperature;humidity
77323;BME280;66384;51.052;9.850;2023-11-19T00:01:50;98257.38;;;5.77;88.50
77323;BME280;66384;51.052;9.850;2023-11-19T00:04:22;98263.98;;;5.80;88.30
77323;BME280;66384;51.052;9.850;2023-11-19T00:06:54;98259.49;;;5.83;88.50
77323;BME280;66384;51.052;9.850;2023-11-19T00:09:28;98266.40;;;5.85;88.63
77323;BME280;66384;51.052;9.850;2023-11-19T00:11:59;98270.56;;;5.87;88.65
77323;BME280;66384;51.052;9.850;2023-11-19T00:14:31;98260.23;;;5.90;88.37
77323;BME280;66384;51.052;9.850;2023-11-19T00:17:03;98257.02;;;5.90;88.41
77323;BME280;66384;51.052;9.850;2023-11-19T00:19:35;98247.80;;;5.90;88.81
77323;BME280;66384;51.052;9.850;2023-11-19T00:22:07;98249.52;;;5.91;88.70
77323;BME280;66384;51.052;9.850;2023-11-19T00:24:39;98252.80;;;5.91;88.80
77323;BME280;66384;51.052;9.850;2023-11-19T00:27:11;98243.60;;;5.92;88.67
77323;BME280;66384;51.052;9.850;2023-11-19T00:29:42;98238.15;;;5.92;88.60
77323;BME280;66384;51.052;9.850;2023-11-19T00:32:15;98245.21;;;5.93;88.88
77323;BME280;66384;51.052;9.850;2023-11-19T00:34:47;98243.52;;;5.94;88.97
77323;BME280;66384;51.052;9.850;2023-11-19T00:37:18;98233.95;;;5.93;88.73
77323;BME280;66384;51.052;9.850;2023-11-19T00:39:50;98227.22;;;5.92;89.01
77323;BME280;66384;51.052;9.850;2023-11-19T00:42:22;98217.85;;;5.92;89.16
77323;BME280;66384;51.052;9.850;2023-11-19T00:44:54;98216.14;;;5.92;88.96
77323;BME280;66384;51.052;9.850;2023-11-19T00:47:26;98216.69;;;5.93;89.11
77323;BME280;66384;51.052;9.850;2023-11-19T00:49:58;98216.29;;;5.92;89.43
77323;BME280;66384;51.052;9.850;2023-11-19T00:52:30;98217.10;;;5.91;89.53
77323;BME280;66384;51.052;9.850;2023-11-19T00:55:01;98206.49;;;5.90;89.49
77323;BME280;66384;51.052;9.850;2023-11-19T00:57:33;98200.09;;;5.88;89.74
77323;BME280;66384;51.052;9.850;2023-11-19T01:00:07;98199.08;;;5.88;89.78
77323;BME280;66384;51.052;9.850;2023-11-19T01:02:50;98194.98;;;5.88;89.99
77323;BME280;66384;51.052;9.850;2023-11-19T01:05:22;98183.03;;;5.88;90.02
77323;BME280;66384;51.052;9.850;2023-11-19T01:07:54;98179.80;;;5.88;90.37
77323;BME280;66384;51.052;9.850;2023-11-19T01:10:26;98172.60;;;5.88;90.41
77323;BME280;66384;51.052;9.850;2023-11-19T01:12:59;98169.69;;;5.87;90.53
77323;BME280;66384;51.052;9.850;2023-11-19T01:15:30;98172.10;;;5.88;90.74
77323;BME280;66384;51.052;9.850;2023-11-19T01:18:02;98163.94;;;5.88;90.52
77323;BME280;66384;51.052;9.850;2023-11-19T01:20:36;98154.25;;;5.90;90.68
77323;BME280;66384;51.052;9.850;2023-11-19T01:23:07;98143.55;;;5.91;90.73
77323;BME280;66384;51.052;9.850;2023-11-19T01:25:39;98151.37;;;5.94;90.60
77323;BME280;66384;51.052;9.850;2023-11-19T01:28:10;98152.11;;;5.96;90.83
77323;BME280;66384;51.052;9.850;2023-11-19T01:30:42;98146.66;;;5.96;90.78
77323;BME280;66384;51.052;9.850;2023-11-19T01:33:14;98148.98;;;5.99;90.93
77323;BME280;66384;51.052;9.850;2023-11-19T01:35:45;98152.77;;;6.00;90.93
77323;BME280;66384;51.052;9.850;2023-11-19T01:38:17;98139.50;;;6.01;90.84
77323;BME280;66384;51.052;9.850;2023-11-19T01:40:48;98135.10;;;6.03;91.05
77323;BME280;66384;51.052;9.850;2023-11-19T01:43:34;98137.84;;;6.02;91.02
77323;BME280;66384;51.052;9.850;2023-11-19T01:46:07;98137.07;;;6.05;91.27
77323;BME280;66384;51.052;9.850;2023-11-19T01:48:42;98125.15;;;6.06;91.31
77323;BME280;66384;51.052;9.850;2023-11-19T01:51:17;98125.03;;;6.07;91.42
77323;BME280;66384;51.052;9.850;2023-11-19T01:53:49;98121.67;;;6.09;91.57
77323;BME280;66384;51.052;9.850;2023-11-19T01:56:21;98113.48;;;6.09;91.62
77323;BME280;66384;51.052;9.850;2023-11-19T01:58:54;98109.45;;;6.11;91.60
77323;BME280;66384;51.052;9.850;2023-11-19T02:01:27;98105.08;;;6.13;91.47
77323;BME280;66384;51.052;9.850;2023-11-19T02:04:00;98099.99;;;6.14;91.92
77323;BME280;66384;51.052;9.850;2023-11-19T02:06:34;98095.92;;;6.14;91.93
77323;BME280;66384;51.052;9.850;2023-11-19T02:09:06;98089.84;;;6.17;91.90
77323;BME280;66384;51.052;9.850;2023-11-19T02:11:40;98088.35;;;6.18;91.67
77323;BME280;66384;51.052;9.850;2023-11-19T02:14:12;98081.94;;;6.20;91.89
77323;BME280;66384;51.052;9.850;2023-11-19T02:16:44;98079.79;;;6.22;91.82
77323;BME280;66384;51.052;9.850;2023-11-19T02:19:15;98070.40;;;6.23;92.05
77323;BME280;66384;51.052;9.850;2023-11-19T02:21:47;98074.02;;;6.24;91.93
77323;BME280;66384;51.052;9.850;2023-11-19T02:24:22;98073.40;;;6.25;91.79
77323;BME280;66384;51.052;9.850;2023-11-19T02:26:57;98080.64;;;6.27;92.12
77323;BME280;66384;51.052;9.850;2023-11-19T02:29:33;98079.79;;;6.28;92.28
77323;BME280;66384;51.052;9.850;2023-11-19T02:32:06;98075.73;;;6.29;92.27
77323;BME280;66384;51.052;9.850;2023-11-19T02:34:39;98070.98;;;6.30;92.06
77323;BME280;66384;51.052;9.850;2023-11-19T02:37:11;98071.90;;;6.31;92.34
77323;BME280;66384;51.052;9.850;2023-11-19T02:39:43;98062.52;;;6.32;92.28
77323;BME280;66384;51.052;9.850;2023-11-19T02:42:14;98055.92;;;6.34;92.36
77323;BME280;66384;51.052;9.850;2023-11-19T02:44:46;98046.04;;;6.35;92.40
77323;BME280;66384;51.052;9.850;2023-11-19T02:47:19;98039.59;;;6.36;92.43
77323;BME280;66384;51.052;9.850;2023-11-19T02:49:52;98042.53;;;6.37;92.31
77323;BME280;66384;51.052;9.850;2023-11-19T02:52:23;98050.92;;;6.38;92.44
77323;BME280;66384;51.052;9.850;2023-11-19T02:54:55;98057.99;;;6.40;92.55
77323;BME280;66384;51.052;9.850;2023-11-19T02:57:26;98042.16;;;6.42;92.56
77323;BME280;66384;51.052;9.850;2023-11-19T03:00:02;98028.84;;;6.42;92.67
77323;BME280;66384;51.052;9.850;2023-11-19T03:02:42;98028.20;;;6.43;92.71
77323;BME280;66384;51.052;9.850;2023-11-19T03:05:17;98041.40;;;6.45;92.81
77323;BME280;66384;51.052;9.850;2023-11-19T03:07:50;98032.23;;;6.47;92.72
77323;BME280;66384;51.052;9.850;2023-11-19T03:10:22;98029.06;;;6.49;92.82
77323;BME280;66384;51.052;9.850;2023-11-19T03:12:54;98013.70;;;6.49;92.64
77323;BME280;66384;51.052;9.850;2023-11-19T03:15:27;98013.76;;;6.51;92.67
77323;BME280;66384;51.052;9.850;2023-11-19T03:17:58;98011.09;;;6.53;92.90
77323;BME280;66384;51.052;9.850;2023-11-19T03:20:30;98009.79;;;6.55;92.80
77323;BME280;66384;51.052;9.850;2023-11-19T03:23:02;98012.58;;;6.57;92.91
77323;BME280;66384;51.052;9.850;2023-11-19T03:25:33;98013.81;;;6.58;92.78
77323;BME280;66384;51.052;9.850;2023-11-19T03:28:07;98008.76;;;6.61;92.91
77323;BME280;66384;51.052;9.850;2023-11-19T03:30:38;98001.99;;;6.63;92.97
77323;BME280;66384;51.052;9.850;2023-11-19T03:33:10;97994.45;;;6.62;93.53
77323;BME280;66384;51.052;9.850;2023-11-19T03:35:42;98006.61;;;6.63;93.42
77323;BME280;66384;51.052;9.850;2023-11-19T03:38:13;98002.01;;;6.64;93.78
77323;BME280;66384;51.052;9.850;2023-11-19T03:40:45;97995.73;;;6.65;93.87
77323;BME280;66384;51.052;9.850;2023-11-19T03:43:17;97998.88;;;6.67;93.40
77323;BME280;66384;51.052;9.850;2023-11-19T03:45:49;98003.54;;;6.69;93.55
77323;BME280;66384;51.052;9.850;2023-11-19T03:48:21;97997.76;;;6.70;93.66
77323;BME280;66384;51.052;9.850;2023-11-19T03:50:53;97990.66;;;6.72;93.63
77323;BME280;66384;51.052;9.850;2023-11-19T03:53:24;97988.98;;;6.73;93.54
77323;BME280;66384;51.052;9.850;2023-11-19T03:55:56;97988.33;;;6.74;93.53
77323;BME280;66384;51.052;9.850;2023-11-19T03:58:27;97993.66;;;6.75;93.57
77323;BME280;66384;51.052;9.850;2023-11-19T04:00:58;97998.17;;;6.78;93.71
77323;BME280;66384;51.052;9.850;2023-11-19T04:03:30;97994.30;;;6.80;93.50
77323;BME280;66384;51.052;9.850;2023-11-19T04:06:03;97986.49;;;6.82;93.69
77323;BME280;66384;51.052;9.850;2023-11-19T04:08:35;97982.13;;;6.84;93.62
77323;BME280;66384;51.052;9.850;2023-11-19T04:11:07;97986.10;;;6.86;93.77
77323;BME280;66384;51.052;9.850;2023-11-19T04:13:39;97988.71;;;6.87;93.96
77323;BME280;66384;51.052;9.850;2023-11-19T04:16:12;97979.88;;;6.89;93.93
77323;BME280;66384;51.052;9.850;2023-11-19T04:18:45;97973.73;;;6.90;94.07
77323;BME280;66384;51.052;9.850;2023-11-19T04:21:17;97962.02;;;6.92;94.11
77323;BME280;66384;51.052;9.850;2023-11-19T04:23:49;97956.62;;;6.95;94.01
77323;BME280;66384;51.052;9.850;2023-11-19T04:26:20;97952.21;;;6.96;93.99
77323;BME280;66384;51.052;9.850;2023-11-19T04:28:52;97947.50;;;6.99;94.09
77323;BME280;66384;51.052;9.850;2023-11-19T04:31:24;97942.23;;;7.00;94.30
77323;BME280;66384;51.052;9.850;2023-11-19T04:34:00;97952.85;;;7.01;94.34
77323;BME280;66384;51.052;9.850;2023-11-19T04:36:32;97958.40;;;7.03;94.45
77323;BME280;66384;51.052;9.850;2023-11-19T04:39:05;97949.74;;;7.06;94.64
77323;BME280;66384;51.052;9.850;2023-11-19T04:41:47;97941.27;;;7.09;94.62
77323;BME280;66384;51.052;9.850;2023-11-19T04:44:19;97942.20;;;7.11;94.50
77323;BME280;66384;51.052;9.850;2023-11-19T04:46:50;97936.65;;;7.14;94.57
77323;BME280;66384;51.052;9.850;2023-11-19T04:49:22;97934.13;;;7.17;94.54
77323;BME280;66384;51.052;9.850;2023-11-19T04:51:53;97940.52;;;7.19;94.57
77323;BME280;66384;51.052;9.850;2023-11-19T04:54:25;97946.02;;;7.19;95.00
77323;BME280;66384;51.052;9.850;2023-11-19T04:56:56;97944.56;;;7.22;94.93
77323;BME280;66384;51.052;9.850;2023-11-19T04:59:28;97943.11;;;7.25;94.62
77323;BME280;66384;51.052;9.850;2023-11-19T05:01:59;97940.13;;;7.29;94.70
77323;BME280;66384;51.052;9.850;2023-11-19T05:04:31;97934.21;;;7.32;94.76
77323;BME280;66384;51.052;9.850;2023-11-19T05:07:03;97931.54;;;7.35;94.95
77323;BME280;66384;51.052;9.850;2023-11-19T05:09:34;97938.77;;;7.37;94.99
77323;BME280;66384;51.052;9.850;2023-11-19T05:12:06;97935.58;;;7.39;95.01
77323;BME280;66384;51.052;9.850;2023-11-19T05:14:40;97935.44;;;7.40;95.29
77323;BME280;66384;51.052;9.850;2023-11-19T05:17:18;97930.38;;;7.43;95.15
77323;BME280;66384;51.052;9.850;2023-11-19T05:19:50;97931.48;;;7.45;95.42
77323;BME280;66384;51.052;9.850;2023-11-19T05:22:21;97922.13;;;7.48;95.15
77323;BME280;66384;51.052;9.850;2023-11-19T05:24:53;97918.59;;;7.50;95.23
77323;BME280;66384;51.052;9.850;2023-11-19T05:27:26;97923.45;;;7.52;95.18
77323;BME280;66384;51.052;9.850;2023-11-19T05:29:59;97919.04;;;7.54;95.44
77323;BME280;66384;51.052;9.850;2023-11-19T05:32:30;97923.55;;;7.57;95.25
77323;BME280;66384;51.052;9.850;2023-11-19T05:35:02;97928.08;;;7.59;95.34
77323;BME280;66384;51.052;9.850;2023-11-19T05:37:34;97916.98;;;7.61;95.44
77323;BME280;66384;51.052;9.850;2023-11-19T05:40:08;97916.20;;;7.63;95.45
77323;BME280;66384;51.052;9.850;2023-11-19T05:42:45;97916.95;;;7.66;95.34
77323;BME280;66384;51.052;9.850;2023-11-19T05:45:17;97910.55;;;7.70;95.17
77323;BME280;66384;51.052;9.850;2023-11-19T05:47:49;97907.71;;;7.73;95.19
77323;BME280;66384;51.052;9.850;2023-11-19T05:50:22;97902.34;;;7.77;95.12
77323;BME280;66384;51.052;9.850;2023-11-19T05:52:54;97902.75;;;7.81;95.14
77323;BME280;66384;51.052;9.850;2023-11-19T05:55:26;97898.05;;;7.85;95.06
77323;BME280;66384;51.052;9.850;2023-11-19T05:57:58;97886.84;;;7.88;95.13
77323;BME280;66384;51.052;9.850;2023-11-19T06:00:30;97882.46;;;7.91;94.97
77323;BME280;66384;51.052;9.850;2023-11-19T06:03:02;97897.07;;;7.93;94.76
77323;BME280;66384;51.052;9.850;2023-11-19T06:05:35;97900.91;;;7.96;94.75
77323;BME280;66384;51.052;9.850;2023-11-19T06:08:06;97903.87;;;7.98;94.80
77323;BME280;66384;51.052;9.850;2023-11-19T06:10:39;97904.61;;;8.01;95.11
77323;BME280;66384;51.052;9.850;2023-11-19T06:13:11;97905.16;;;8.02;94.95
77323;BME280;66384;51.052;9.850;2023-11-19T06:15:43;97905.71;;;8.04;94.76
77323;BME280;66384;51.052;9.850;2023-11-19T06:18:14;97903.36;;;8.06;94.77
77323;BME280;66384;51.052;9.850;2023-11-19T06:20:46;97905.66;;;8.09;94.64
77323;BME280;66384;51.052;9.850;2023-11-19T06:23:18;97917.01;;;8.11;94.48
77323;BME280;66384;51.052;9.850;2023-11-19T06:25:49;97927.80;;;8.11;94.72
77323;BME280;66384;51.052;9.850;2023-11-19T06:28:21;97917.55;;;8.13;94.60
77323;BME280;66384;51.052;9.850;2023-11-19T06:30:53;97916.20;;;8.13;94.75
77323;BME280;66384;51.052;9.850;2023-11-19T06:33:24;97920.35;;;8.14;94.68
77323;BME280;66384;51.052;9.850;2023-11-19T06:35:58;97914.36;;;8.15;95.03
77323;BME280;66384;51.052;9.850;2023-11-19T06:38:30;97913.34;;;8.15;94.99
77323;BME280;66384;51.052;9.850;2023-11-19T06:41:01;97918.51;;;8.16;95.10
77323;BME280;66384;51.052;9.850;2023-11-19T06:43:37;97922.26;;;8.15;95.34
77323;BME280;66384;51.052;9.850;2023-11-19T06:46:18;97925.38;;;8.17;95.27
77323;BME280;66384;51.052;9.850;2023-11-19T06:48:50;97918.70;;;8.18;95.55
77323;BME280;66384;51.052;9.850;2023-11-19T06:51:21;97916.85;;;8.19;95.42
77323;BME280;66384;51.052;9.850;2023-11-19T06:53:54;97922.20;;;8.21;95.59
77323;BME280;66384;51.052;9.850;2023-11-19T06:56:26;97915.76;;;8.24;95.42
77323;BME280;66384;51.052;9.850;2023-11-19T06:58:58;97912.76;;;8.28;95.60
77323;BME280;66384;51.052;9.850;2023-11-19T07:01:29;97913.54;;;8.31;95.72
77323;BME280;66384;51.052;9.850;2023-11-19T07:04:06;97912.58;;;8.34;95.63
77323;BME280;66384;51.052;9.850;2023-11-19T07:06:40;97916.80;;;8.39;95.83
77323;BME280;66384;51.052;9.850;2023-11-19T07:09:12;97921.50;;;8.42;95.85
77323;BME280;66384;51.052;9.850;2023-11-19T07:11:44;97920.73;;;8.46;95.77
77323;BME280;66384;51.052;9.850;2023-11-19T07:14:16;97925.78;;;8.49;95.86
77323;BME280;66384;51.052;9.850;2023-11-19T07:16:48;97930.81;;;8.52;95.63
77323;BME280;66384;51.052;9.850;2023-11-19T07:19:20;97936.55;;;8.56;95.78
77323;BME280;66384;51.052;9.850;2023-11-19T07:21:52;97934.38;;;8.58;95.65
77323;BME280;66384;51.052;9.850;2023-11-19T07:24:24;97932.88;;;8.60;95.80
77323;BME280;66384;51.052;9.850;2023-11-19T07:26:58;97937.89;;;8.62;95.78
77323;BME280;66384;51.052;9.850;2023-11-19T07:29:30;97942.41;;;8.65;96.08
77323;BME280;66384;51.052;9.850;2023-11-19T07:32:02;97945.92;;;8.69;95.77
77323;BME280;66384;51.052;9.850;2023-11-19T07:34:35;97942.57;;;8.73;95.87
77323;BME280;66384;51.052;9.850;2023-11-19T07:37:07;97944.52;;;8.76;95.93
77323;BME280;66384;51.052;9.850;2023-11-19T07:39:38;97943.07;;;8.80;95.82
77323;BME280;66384;51.052;9.850;2023-11-19T07:42:11;97936.48;;;8.84;95.74
77323;BME280;66384;51.052;9.850;2023-11-19T07:44:44;97925.58;;;8.88;95.49
77323;BME280;66384;51.052;9.850;2023-11-19T07:47:16;97918.44;;;8.91;95.53
77323;BME280;66384;51.052;9.850;2023-11-19T07:49:48;97916.12;;;8.95;95.22
77323;BME280;66384;51.052;9.850;2023-11-19T07:52:20;97917.27;;;9.01;95.15
77323;BME280;66384;51.052;9.850;2023-11-19T07:54:52;97920.50;;;9.09;95.09
77323;BME280;66384;51.052;9.850;2023-11-19T07:57:23;97923.35;;;9.15;94.76
77323;BME280;66384;51.052;9.850;2023-11-19T07:59:57;97926.03;;;9.20;94.59
77323;BME280;66384;51.052;9.850;2023-11-19T08:02:29;97925.80;;;9.27;94.62
77323;BME280;66384;51.052;9.850;2023-11-19T08:05:01;97926.08;;;9.32;93.60
77323;BME280;66384;51.052;9.850;2023-11-19T08:07:33;97927.71;;;9.36;93.46
77323;BME280;66384;51.052;9.850;2023-11-19T08:10:06;97930.86;;;9.40;93.10
77323;BME280;66384;51.052;9.850;2023-11-19T08:12:40;97935.38;;;9.44;92.27
77323;BME280;66384;51.052;9.850;2023-11-19T08:15:12;97929.10;;;9.47;91.77
77323;BME280;66384;51.052;9.850;2023-11-19T08:17:43;97928.98;;;9.50;91.20
77323;BME280;66384;51.052;9.850;2023-11-19T08:20:15;97928.03;;;9.54;90.40
77323;BME280;66384;51.052;9.850;2023-11-19T08:22:46;97927.40;;;9.57;89.92
77323;BME280;66384;51.052;9.850;2023-11-19T08:25:19;97926.09;;;9.61;89.35
77323;BME280;66384;51.052;9.850;2023-11-19T08:27:50;97929.75;;;9.64;88.71
77323;BME280;66384;51.052;9.850;2023-11-19T08:30:22;97938.42;;;9.69;88.29
77323;BME280;66384;51.052;9.850;2023-11-19T08:32:54;97936.77;;;9.72;87.66
77323;BME280;66384;51.052;9.850;2023-11-19T08:35:26;97932.36;;;9.76;87.52
77323;BME280;66384;51.052;9.850;2023-11-19T08:37:58;97934.48;;;9.79;87.17
77323;BME280;66384;51.052;9.850;2023-11-19T08:40:30;97926.11;;;9.83;87.03
77323;BME280;66384;51.052;9.850;2023-11-19T08:43:02;97922.05;;;9.86;86.52
77323;BME280;66384;51.052;9.850;2023-11-19T08:45:33;97908.73;;;9.90;86.66
77323;BME280;66384;51.052;9.850;2023-11-19T08:48:05;97907.06;;;9.94;86.23
77323;BME280;66384;51.052;9.850;2023-11-19T08:50:37;97915.94;;;10.01;85.72
77323;BME280;66384;51.052;9.850;2023-11-19T08:53:08;97914.98;;;10.06;85.20
77323;BME280;66384;51.052;9.850;2023-11-19T08:55:40;97924.69;;;10.11;85.18
77323;BME280;66384;51.052;9.850;2023-11-19T08:58:11;97932.14;;;10.16;84.80
77323;BME280;66384;51.052;9.850;2023-11-19T09:00:43;97941.11;;;10.18;84.15
77323;BME280;66384;51.052;9.850;2023-11-19T09:03:15;97945.25;;;10.19;84.27
77323;BME280;66384;51.052;9.850;2023-11-19T09:05:47;97947.52;;;10.20;84.09
77323;BME280;66384;51.052;9.850;2023-11-19T09:08:18;97950.62;;;10.21;83.61
77323;BME280;66384;51.052;9.850;2023-11-19T09:10:50;97961.79;;;10.22;83.65
77323;BME280;66384;51.052;9.850;2023-11-19T09:13:21;97968.17;;;10.24;83.38
77323;BME280;66384;51.052;9.850;2023-11-19T09:15:53;97973.05;;;10.26;83.10
77323;BME280;66384;51.052;9.850;2023-11-19T09:18:25;97980.69;;;10.30;82.81
77323;BME280;66384;51.052;9.850;2023-11-19T09:20:56;97974.02;;;10.33;82.55
77323;BME280;66384;51.052;9.850;2023-11-19T09:23:28;97982.66;;;10.36;81.95
77323;BME280;66384;51.052;9.850;2023-11-19T09:26:03;97981.35;;;10.39;81.25
77323;BME280;66384;51.052;9.850;2023-11-19T09:28:35;97987.43;;;10.44;81.48
77323;BME280;66384;51.052;9.850;2023-11-19T09:31:15;97994.56;;;10.48;80.89
77323;BME280;66384;51.052;9.850;2023-11-19T09:33:47;97996.49;;;10.52;80.73
77323;BME280;66384;51.052;9.850;2023-11-19T09:36:18;98006.52;;;10.56;80.80
77323;BME280;66384;51.052;9.850;2023-11-19T09:38:50;97999.68;;;10.59;80.20
77323;BME280;66384;51.052;9.850;2023-11-19T09:41:22;97999.56;;;10.61;80.09
77323;BME280;66384;51.052;9.850;2023-11-19T09:43:54;97997.52;;;10.63;79.66
77323;BME280;66384;51.052;9.850;2023-11-19T09:46:27;97996.34;;;10.65;79.53
77323;BME280;66384;51.052;9.850;2023-11-19T09:49:00;97990.23;;;10.70;79.53
77323;BME280;66384;51.052;9.850;2023-11-19T09:51:34;97975.80;;;10.72;79.66
77323;BME280;66384;51.052;9.850;2023-11-19T09:54:06;97974.80;;;10.75;79.63
77323;BME280;66384;51.052;9.850;2023-11-19T09:56:39;97959.89;;;10.78;79.39
77323;BME280;66384;51.052;9.850;2023-11-19T09:59:10;97965.95;;;10.81;78.61
77323;BME280;66384;51.052;9.850;2023-11-19T10:01:43;97962.56;;;10.85;78.58
77323;BME280;66384;51.052;9.850;2023-11-19T10:04:17;97965.54;;;10.88;77.59
77323;BME280;66384;51.052;9.850;2023-11-19T10:06:51;97961.95;;;10.91;76.57
77323;BME280;66384;51.052;9.850;2023-11-19T10:09:22;97960.60;;;10.93;76.85
77323;BME280;66384;51.052;9.850;2023-11-19T10:11:54;97967.89;;;10.98;76.53
77323;BME280;66384;51.052;9.850;2023-11-19T10:14:26;97970.33;;;11.01;75.91
77323;BME280;66384;51.052;9.850;2023-11-19T10:16:59;97967.80;;;11.04;76.10
77323;BME280;66384;51.052;9.850;2023-11-19T10:19:34;97958.20;;;11.07;75.47
77323;BME280;66384;51.052;9.850;2023-11-19T10:22:07;97958.08;;;11.10;75.71
77323;BME280;66384;51.052;9.850;2023-11-19T10:24:39;97954.51;;;11.15;75.36
77323;BME280;66384;51.052;9.850;2023-11-19T10:27:18;97949.22;;;11.20;75.25
77323;BME280;66384;51.052;9.850;2023-11-19T10:29:49;97951.68;;;11.23;74.93
77323;BME280;66384;51.052;9.850;2023-11-19T10:32:21;97951.39;;;11.28;74.28
77323;BME280;66384;51.052;9.850;2023-11-19T10:35:07;97953.50;;;11.31;74.10
77323;BME280;66384;51.052;9.850;2023-11-19T10:37:43;97953.55;;;11.36;74.21
77323;BME280;66384;51.052;9.850;2023-11-19T10:40:16;97951.34;;;11.38;73.96
77323;BME280;66384;51.052;9.850;2023-11-19T10:42:48;97949.83;;;11.43;73.79
77323;BME280;66384;51.052;9.850;2023-11-19T10:45:24;97950.23;;;11.48;73.89
77323;BME280;66384;51.052;9.850;2023-11-19T10:47:56;97944.23;;;11.51;72.75
77323;BME280;66384;51.052;9.850;2023-11-19T10:50:28;97937.55;;;11.55;73.02
77323;BME280;66384;51.052;9.850;2023-11-19T10:53:01;97936.88;;;11.56;72.10
77323;BME280;66384;51.052;9.850;2023-11-19T10:55:34;97931.95;;;11.62;73.08
77323;BME280;66384;51.052;9.850;2023-11-19T10:58:07;97933.36;;;11.67;72.21
77323;BME280;66384;51.052;9.850;2023-11-19T11:00:45;97933.56;;;11.70;71.59
77323;BME280;66384;51.052;9.850;2023-11-19T11:03:20;97937.73;;;11.73;71.71
77323;BME280;66384;51.052;9.850;2023-11-19T11:05:54;97930.54;;;11.77;71.46
77323;BME280;66384;51.052;9.850;2023-11-19T11:08:26;97936.27;;;11.82;71.47
77323;BME280;66384;51.052;9.850;2023-11-19T11:10:57;97939.79;;;11.88;70.78
77323;BME280;66384;51.052;9.850;2023-11-19T11:13:30;97942.06;;;11.90;71.12
77323;BME280;66384;51.052;9.850;2023-11-19T11:16:03;97936.71;;;11.89;71.22
77323;BME280;66384;51.052;9.850;2023-11-19T11:18:38;97938.10;;;11.92;70.73
77323;BME280;66384;51.052;9.850;2023-11-19T11:21:14;97936.05;;;11.93;70.82
77323;BME280;66384;51.052;9.850;2023-11-19T11:24:14;97939.18;;;11.96;70.17
77323;BME280;66384;51.052;9.850;2023-11-19T11:27:08;97939.37;;;11.99;70.14
77323;BME280;66384;51.052;9.850;2023-11-19T11:29:51;97934.24;;;12.03;70.53
77323;BME280;66384;51.052;9.850;2023-11-19T11:32:35;97938.07;;;12.08;70.27
77323;BME280;66384;51.052;9.850;2023-11-19T11:35:24;97938.84;;;12.17;70.53
77323;BME280;66384;51.052;9.850;2023-11-19T11:38:04;97947.35;;;12.24;70.77
77323;BME280;66384;51.052;9.850;2023-11-19T11:40:37;97950.33;;;12.34;70.47
77323;BME280;66384;51.052;9.850;2023-11-19T11:43:46;97950.04;;;12.42;70.28
77323;BME280;66384;51.052;9.850;2023-11-19T11:49:28;97951.59;;;12.41;69.71
77323;BME280;66384;51.052;9.850;2023-11-19T11:52:03;97948.98;;;12.37;69.77
77323;BME280;66384;51.052;9.850;2023-11-19T11:54:36;97948.94;;;12.32;69.58
77323;BME280;66384;51.052;9.850;2023-11-19T11:57:12;97947.17;;;12.26;69.49
77323;BME280;66384;51.052;9.850;2023-11-19T11:59:50;97957.81;;;12.20;69.44
77323;BME280;66384;51.052;9.850;2023-11-19T12:02:24;97950.88;;;12.15;69.74
77323;BME280;66384;51.052;9.850;2023-11-19T12:04:56;97954.13;;;12.11;69.86
77323;BME280;66384;51.052;9.850;2023-11-19T12:07:29;97949.45;;;12.08;70.38
77323;BME280;66384;51.052;9.850;2023-11-19T12:10:09;97957.33;;;12.03;69.51
77323;BME280;66384;51.052;9.850;2023-11-19T12:12:42;97964.02;;;11.99;70.02
77323;BME280;66384;51.052;9.850;2023-11-19T12:15:14;97967.41;;;11.94;70.15
77323;BME280;66384;51.052;9.850;2023-11-19T12:17:49;97958.25;;;11.89;69.59
77323;BME280;66384;51.052;9.850;2023-11-19T12:20:23;97965.58;;;11.83;69.61
77323;BME280;66384;51.052;9.850;2023-11-19T12:22:59;97960.87;;;11.78;69.95
77323;BME280;66384;51.052;9.850;2023-11-19T12:25:38;97959.80;;;11.73;70.04
77323;BME280;66384;51.052;9.850;2023-11-19T12:28:13;97960.48;;;11.73;69.70
77323;BME280;66384;51.052;9.850;2023-11-19T12:30:45;97955.82;;;11.73;69.75
77323;BME280;66384;51.052;9.850;2023-11-19T12:33:18;97957.73;;;11.74;69.28
77323;BME280;66384;51.052;9.850;2023-11-19T12:35:50;97952.57;;;11.75;69.35
77323;BME280;66384;51.052;9.850;2023-11-19T12:38:24;97957.36;;;11.72;69.37
77323;BME280;66384;51.052;9.850;2023-11-19T12:41:06;97961.81;;;11.69;69.73
77323;BME280;66384;51.052;9.850;2023-11-19T12:43:38;97964.70;;;11.65;69.21
77323;BME280;66384;51.052;9.850;2023-11-19T12:46:20;97953.47;;;11.62;69.47
77323;BME280;66384;51.052;9.850;2023-11-19T12:48:53;97945.33;;;11.57;69.94
77323;BME280;66384;51.052;9.850;2023-11-19T12:51:32;97946.33;;;11.54;70.45
77323;BME280;66384;51.052;9.850;2023-11-19T12:54:04;97944.92;;;11.50;70.07
77323;BME280;66384;51.052;9.850;2023-11-19T12:56:36;97944.55;;;11.49;70.16
77323;BME280;66384;51.052;9.850;2023-11-19T12:59:14;97943.36;;;11.49;70.79
77323;BME280;66384;51.052;9.850;2023-11-19T13:01:56;97944.89;;;11.47;70.29
77323;BME280;66384;51.052;9.850;2023-11-19T13:04:31;97946.77;;;11.46;70.24
77323;BME280;66384;51.052;9.850;2023-11-19T13:07:02;97943.13;;;11.44;70.65
77323;BME280;66384;51.052;9.850;2023-11-19T13:09:36;97947.77;;;11.44;70.92
77323;BME280;66384;51.052;9.850;2023-11-19T13:12:15;97947.78;;;11.44;70.71
77323;BME280;66384;51.052;9.850;2023-11-19T13:14:47;97945.20;;;11.45;70.51
77323;BME280;66384;51.052;9.850;2023-11-19T13:17:19;97948.11;;;11.43;69.58
77323;BME280;66384;51.052;9.850;2023-11-19T13:19:51;97948.78;;;11.42;69.30
77323;BME280;66384;51.052;9.850;2023-11-19T13:22:23;97946.53;;;11.41;68.58
77323;BME280;66384;51.052;9.850;2023-11-19T13:24:54;97941.19;;;11.39;68.58
77323;BME280;66384;51.052;9.850;2023-11-19T13:27:26;97938.79;;;11.40;68.93
77323;BME280;66384;51.052;9.850;2023-11-19T13:29:57;97935.86;;;11.41;69.11
77323;BME280;66384;51.052;9.850;2023-11-19T13:32:29;97930.34;;;11.39;69.09
77323;BME280;66384;51.052;9.850;2023-11-19T13:35:01;97924.98;;;11.37;68.65
77323;BME280;66384;51.052;9.850;2023-11-19T13:37:33;97914.95;;;11.34;69.32
77323;BME280;66384;51.052;9.850;2023-11-19T13:40:07;97914.24;;;11.31;69.52
77323;BME280;66384;51.052;9.850;2023-11-19T13:42:40;97910.77;;;11.28;69.81